sensor_id;sensor_type;location;lat;lon;timestamp;P1;P2;P0
49343;PMS5003;35210;41.606;-87.602;2023-02-03T00:02:04;21.00;20.60;12.60
49343;PMS5003;35210;41.606;-87.602;2023-02-03T00:04:34;19.60;17.40;10.40
49343;PMS5003;35210;41.606;-87.602;2023-02-03T00:07:05;21.60;21.60;16.00
49343;PMS5003;35210;41.606;-87.602;2023-02-03T00:09:35;17.20;16.20;14.00
49343;PMS5003;35210;41.606;-87.602;2023-02-03T00:12:05;26.20;22.80;15.60
49343;PMS5003;35210;41.606;-87.602;2023-02-03T00:14:35;36.20;22.80;16.00
49343;PMS5003;35210;41.606;-87.602;2023-02-03T00:17:05;29.40;23.20;16.80
49343;PMS5003;35210;41.606;-87.602;2023-02-03T00:19:34;26.40;19.60;11.40
49343;PMS5003;35210;41.606;-87.602;2023-02-03T00:22:03;28.80;26.60;15.40
49343;PMS5003;35210;41.606;-87.602;2023-02-03T00:24:35;25.00;22.80;16.60
49343;PMS5003;35210;41.606;-87.602;2023-02-03T00:27:07;31.40;27.00;16.60
49343;PMS5003;35210;41.606;-87.602;2023-02-03T00:29:35;23.00;21.20;14.80
49343;PMS5003;35210;41.606;-87.602;2023-02-03T00:32:04;20.00;18.80;16.40
49343;PMS5003;35210;41.606;-87.602;2023-02-03T00:34:32;25.60;22.40;14.00
49343;PMS5003;35210;41.606;-87.602;2023-02-03T00:37:02;24.80;20.20;14.00
49343;PMS5003;35210;41.606;-87.602;2023-02-03T00:39:34;18.00;18.00;12.80
49343;PMS5003;35210;41.606;-87.602;2023-02-03T00:42:03;16.60;13.60;9.60
49343;PMS5003;35210;41.606;-87.602;2023-02-03T00:44:34;18.80;17.20;11.20
49343;PMS5003;35210;41.606;-87.602;2023-02-03T00:47:02;19.20;16.00;11.60
49343;PMS5003;35210;41.606;-87.602;2023-02-03T00:49:30;16.80;14.80;10.40
49343;PMS5003;35210;41.606;-87.602;2023-02-03T00:51:58;16.80;15.00;8.20
49343;PMS5003;35210;41.606;-87.602;2023-02-03T00:54:27;21.20;15.40;9.60
49343;PMS5003;35210;41.606;-87.602;2023-02-03T00:56:57;7.20;7.20;4.40
49343;PMS5003;35210;41.606;-87.602;2023-02-03T00:59:25;16.40;15.00;9.40
49343;PMS5003;35210;41.606;-87.602;2023-02-03T01:01:53;16.00;13.80;8.60
49343;PMS5003;35210;41.606;-87.602;2023-02-03T01:04:21;17.00;12.20;7.80
49343;PMS5003;35210;41.606;-87.602;2023-02-03T01:06:49;26.60;18.80;11.20
49343;PMS5003;35210;41.606;-87.602;2023-02-03T01:09:20;18.40;16.00;9.80
49343;PMS5003;35210;41.606;-87.602;2023-02-03T01:11:48;20.00;18.40;12.20
49343;PMS5003;35210;41.606;-87.602;2023-02-03T01:14:21;18.60;16.80;11.60
49343;PMS5003;35210;41.606;-87.602;2023-02-03T01:16:49;21.20;19.80;12.60
49343;PMS5003;35210;41.606;-87.602;2023-02-03T01:19:18;19.60;18.80;11.60
49343;PMS5003;35210;41.606;-87.602;2023-02-03T01:21:48;27.40;20.80;13.00
49343;PMS5003;35210;41.606;-87.602;2023-02-03T01:24:17;19.60;14.40;9.60
49343;PMS5003;35210;41.606;-87.602;2023-02-03T01:26:45;24.60;19.20;12.00
49343;PMS5003;35210;41.606;-87.602;2023-02-03T01:29:14;20.60;18.20;10.40
49343;PMS5003;35210;41.606;-87.602;2023-02-03T01:31:44;25.00;19.00;12.80
49343;PMS5003;35210;41.606;-87.602;2023-02-03T01:34:12;19.00;15.00;10.00
49343;PMS5003;35210;41.606;-87.602;2023-02-03T01:36:42;24.60;20.60;13.40
49343;PMS5003;35210;41.606;-87.602;2023-02-03T01:39:11;25.00;21.40;15.00
49343;PMS5003;35210;41.606;-87.602;2023-02-03T01:41:39;18.20;17.20;12.40
49343;PMS5003;35210;41.606;-87.602;2023-02-03T01:47:20;26.00;21.80;14.20
49343;PMS5003;35210;41.606;-87.602;2023-02-03T01:49:54;19.60;13.60;7.80
49343;PMS5003;35210;41.606;-87.602;2023-02-03T01:52:26;18.40;15.60;10.00
49343;PMS5003;35210;41.606;-87.602;2023-02-03T01:54:55;12.80;11.20;6.00
49343;PMS5003;35210;41.606;-87.602;2023-02-03T01:57:29;15.20;13.00;9.00
49343;PMS5003;35210;41.606;-87.602;2023-02-03T02:00:03;19.60;13.00;8.60
49343;PMS5003;35210;41.606;-87.602;2023-02-03T02:02:35;14.60;10.80;7.00
49343;PMS5003;35210;41.606;-87.602;2023-02-03T02:05:10;14.20;14.20;8.20
49343;PMS5003;35210;41.606;-87.602;2023-02-03T02:07:43;10.20;9.00;6.00
49343;PMS5003;35210;41.606;-87.602;2023-02-03T02:10:14;13.60;10.40;7.00
49343;PMS5003;35210;41.606;-87.602;2023-02-03T02:12:42;9.80;9.00;6.20
49343;PMS5003;35210;41.606;-87.602;2023-02-03T02:15:10;14.00;10.80;7.20
49343;PMS5003;35210;41.606;-87.602;2023-02-03T02:17:48;11.20;6.60;4.00
49343;PMS5003;35210;41.606;-87.602;2023-02-03T02:20:37;12.60;6.20;3.40
49343;PMS5003;35210;41.606;-87.602;2023-02-03T02:23:31;7.20;6.80;4.00
49343;PMS5003;35210;41.606;-87.602;2023-02-03T02:26:23;9.40;5.20;3.80
49343;PMS5003;35210;41.606;-87.602;2023-02-03T02:29:11;5.80;5.20;4.00
49343;PMS5003;35210;41.606;-87.602;2023-02-03T02:32:08;6.20;6.00;3.00
49343;PMS5003;35210;41.606;-87.602;2023-02-03T02:34:49;4.00;4.00;3.00
49343;PMS5003;35210;41.606;-87.602;2023-02-03T02:37:25;3.80;3.00;1.00
49343;PMS5003;35210;41.606;-87.602;2023-02-03T02:40:07;4.00;4.00;2.60
49343;PMS5003;35210;41.606;-87.602;2023-02-03T02:42:45;9.40;6.60;3.80
49343;PMS5003;35210;41.606;-87.602;2023-02-03T02:45:26;4.80;4.80;3.20
49343;PMS5003;35210;41.606;-87.602;2023-02-03T02:48:01;6.20;4.00;3.00
49343;PMS5003;35210;41.606;-87.602;2023-02-03T02:50:36;4.00;4.00;3.00
49343;PMS5003;35210;41.606;-87.602;2023-02-03T02:53:10;3.80;3.80;1.80
49343;PMS5003;35210;41.606;-87.602;2023-02-03T02:55:40;3.80;2.60;1.00
49343;PMS5003;35210;41.606;-87.602;2023-02-03T02:58:13;6.60;1.00;0.60
49343;PMS5003;35210;41.606;-87.602;2023-02-03T03:00:43;4.60;3.60;3.00
49343;PMS5003;35210;41.606;-87.602;2023-02-03T03:03:15;1.40;1.40;1.00
49343;PMS5003;35210;41.606;-87.602;2023-02-03T03:05:45;6.60;5.20;3.00
49343;PMS5003;35210;41.606;-87.602;2023-02-03T03:08:19;5.60;4.40;3.00
49343;PMS5003;35210;41.606;-87.602;2023-02-03T03:10:51;6.00;4.00;3.00
49343;PMS5003;35210;41.606;-87.602;2023-02-03T03:13:24;6.00;4.40;3.60
49343;PMS5003;35210;41.606;-87.602;2023-02-03T03:15:58;0.00;0.00;0.00
49343;PMS5003;35210;41.606;-87.602;2023-02-03T03:18:29;3.60;3.60;2.20
49343;PMS5003;35210;41.606;-87.602;2023-02-03T03:21:03;4.40;3.20;2.20
49343;PMS5003;35210;41.606;-87.602;2023-02-03T03:23:33;3.00;3.00;1.00
49343;PMS5003;35210;41.606;-87.602;2023-02-03T03:26:08;5.20;3.60;2.20
49343;PMS5003;35210;41.606;-87.602;2023-02-03T03:28:41;7.00;4.80;3.00
49343;PMS5003;35210;41.606;-87.602;2023-02-03T03:31:15;3.20;3.20;1.00
49343;PMS5003;35210;41.606;-87.602;2023-02-03T03:33:46;7.00;5.60;3.00
49343;PMS5003;35210;41.606;-87.602;2023-02-03T03:36:21;6.20;4.40;3.00
49343;PMS5003;35210;41.606;-87.602;2023-02-03T03:38:53;6.00;5.60;3.00
49343;PMS5003;35210;41.606;-87.602;2023-02-03T03:41:29;6.20;4.60;3.20
49343;PMS5003;35210;41.606;-87.602;2023-02-03T03:44:09;8.60;5.60;3.40
49343;PMS5003;35210;41.606;-87.602;2023-02-03T03:46:43;6.60;4.00;3.00
49343;PMS5003;35210;41.606;-87.602;2023-02-03T03:49:19;6.00;4.00;3.00
49343;PMS5003;35210;41.606;-87.602;2023-02-03T03:51:52;1.80;1.40;1.00
49343;PMS5003;35210;41.606;-87.602;2023-02-03T03:54:25;4.00;3.40;3.00
49343;PMS5003;35210;41.606;-87.602;2023-02-03T03:56:57;3.40;2.00;1.80
49343;PMS5003;35210;41.606;-87.602;2023-02-03T03:59:30;4.00;3.80;1.00
49343;PMS5003;35210;41.606;-87.602;2023-02-03T04:02:02;4.00;2.20;1.00
49343;PMS5003;35210;41.606;-87.602;2023-02-03T04:04:33;5.60;3.00;1.00
49343;PMS5003;35210;41.606;-87.602;2023-02-03T04:07:05;2.20;1.00;1.00
49343;PMS5003;35210;41.606;-87.602;2023-02-03T04:09:33;4.00;3.20;2.60
49343;PMS5003;35210;41.606;-87.602;2023-02-03T04:12:04;5.20;1.00;0.00
49343;PMS5003;35210;41.606;-87.602;2023-02-03T04:14:42;1.00;1.00;0.60
49343;PMS5003;35210;41.606;-87.602;2023-02-03T04:17:11;4.00;3.00;1.40
49343;PMS5003;35210;41.606;-87.602;2023-02-03T04:19:41;3.00;1.40;1.00
49343;PMS5003;35210;41.606;-87.602;2023-02-03T04:22:10;7.00;3.00;3.00
49343;PMS5003;35210;41.606;-87.602;2023-02-03T04:24:39;3.00;3.00;1.00
49343;PMS5003;35210;41.606;-87.602;2023-02-03T04:27:07;4.80;3.00;1.00
49343;PMS5003;35210;41.606;-87.602;2023-02-03T04:29:36;3.00;3.00;1.00
49343;PMS5003;35210;41.606;-87.602;2023-02-03T04:32:04;2.20;2.20;2.20
49343;PMS5003;35210;41.606;-87.602;2023-02-03T04:34:35;7.60;3.60;2.20
49343;PMS5003;35210;41.606;-87.602;2023-02-03T04:37:05;5.20;4.80;3.00
49343;PMS5003;35210;41.606;-87.602;2023-02-03T04:39:34;3.80;1.40;0.40
49343;PMS5003;35210;41.606;-87.602;2023-02-03T04:42:02;1.80;1.00;0.00
49343;PMS5003;35210;41.606;-87.602;2023-02-03T04:44:31;2.60;1.80;1.00
49343;PMS5003;35210;41.606;-87.602;2023-02-03T04:46:59;2.20;2.20;1.00
49343;PMS5003;35210;41.606;-87.602;2023-02-03T04:49:28;3.80;3.80;2.20
49343;PMS5003;35210;41.606;-87.602;2023-02-03T04:51:58;2.80;1.40;1.00
49343;PMS5003;35210;41.606;-87.602;2023-02-03T04:54:27;3.00;1.00;1.00
49343;PMS5003;35210;41.606;-87.602;2023-02-03T04:56:56;4.20;1.00;1.00
49343;PMS5003;35210;41.606;-87.602;2023-02-03T04:59:24;0.40;0.40;0.00
49343;PMS5003;35210;41.606;-87.602;2023-02-03T05:01:53;2.60;2.60;0.80
49343;PMS5003;35210;41.606;-87.602;2023-02-03T05:04:22;1.60;0.00;0.00
49343;PMS5003;35210;41.606;-87.602;2023-02-03T05:06:51;1.40;1.40;0.00
49343;PMS5003;35210;41.606;-87.602;2023-02-03T05:09:22;1.00;1.00;0.20
49343;PMS5003;35210;41.606;-87.602;2023-02-03T05:11:54;1.80;1.00;0.00
49343;PMS5003;35210;41.606;-87.602;2023-02-03T05:14:23;0.60;0.60;0.00
49343;PMS5003;35210;41.606;-87.602;2023-02-03T05:16:51;0.00;0.00;0.00
49343;PMS5003;35210;41.606;-87.602;2023-02-03T05:19:21;1.00;1.00;1.00
49343;PMS5003;35210;41.606;-87.602;2023-02-03T05:21:49;1.00;1.00;0.20
49343;PMS5003;35210;41.606;-87.602;2023-02-03T05:24:19;3.60;1.00;1.00
49343;PMS5003;35210;41.606;-87.602;2023-02-03T05:26:48;0.20;0.00;0.00
49343;PMS5003;35210;41.606;-87.602;2023-02-03T05:29:18;3.40;1.00;0.00
49343;PMS5003;35210;41.606;-87.602;2023-02-03T05:31:47;5.60;1.20;0.40
49343;PMS5003;35210;41.606;-87.602;2023-02-03T05:34:16;3.00;0.40;0.00
49343;PMS5003;35210;41.606;-87.602;2023-02-03T05:36:44;0.00;0.00;0.00
49343;PMS5003;35210;41.606;-87.602;2023-02-03T05:39:12;3.60;1.00;0.00
49343;PMS5003;35210;41.606;-87.602;2023-02-03T05:41:41;0.00;0.00;0.00
49343;PMS5003;35210;41.606;-87.602;2023-02-03T05:44:18;0.00;0.00;0.00
49343;PMS5003;35210;41.606;-87.602;2023-02-03T05:46:47;1.20;1.20;0.00
49343;PMS5003;35210;41.606;-87.602;2023-02-03T05:49:17;1.20;0.00;0.00
49343;PMS5003;35210;41.606;-87.602;2023-02-03T05:51:45;3.40;1.00;0.00
49343;PMS5003;35210;41.606;-87.602;2023-02-03T05:54:17;0.60;0.00;0.00
49343;PMS5003;35210;41.606;-87.602;2023-02-03T05:56:45;0.60;0.00;0.00
49343;PMS5003;35210;41.606;-87.602;2023-02-03T05:59:15;3.60;0.20;0.00
49343;PMS5003;35210;41.606;-87.602;2023-02-03T06:01:45;0.40;0.40;0.00
49343;PMS5003;35210;41.606;-87.602;2023-02-03T06:04:14;3.40;3.40;0.00
49343;PMS5003;35210;41.606;-87.602;2023-02-03T06:06:43;1.80;1.00;0.00
49343;PMS5003;35210;41.606;-87.602;2023-02-03T06:09:12;3.00;0.00;0.00
49343;PMS5003;35210;41.606;-87.602;2023-02-03T06:11:40;1.00;0.60;0.00
49343;PMS5003;35210;41.606;-87.602;2023-02-03T06:14:08;6.40;3.00;0.00
49343;PMS5003;35210;41.606;-87.602;2023-02-03T06:16:36;0.00;0.00;0.00
49343;PMS5003;35210;41.606;-87.602;2023-02-03T06:19:07;1.00;1.00;0.00
49343;PMS5003;35210;41.606;-87.602;2023-02-03T06:21:35;0.20;0.20;0.00
49343;PMS5003;35210;41.606;-87.602;2023-02-03T06:24:03;1.00;0.20;0.00
49343;PMS5003;35210;41.606;-87.602;2023-02-03T06:26:32;1.40;0.00;0.00
49343;PMS5003;35210;41.606;-87.602;2023-02-03T06:29:00;1.00;0.20;0.00
49343;PMS5003;35210;41.606;-87.602;2023-02-03T06:31:28;0.00;0.00;0.00
49343;PMS5003;35210;41.606;-87.602;2023-02-03T06:33:57;0.80;0.80;0.00
49343;PMS5003;35210;41.606;-87.602;2023-02-03T06:36:28;0.00;0.00;0.00
49343;PMS5003;35210;41.606;-87.602;2023-02-03T06:38:56;3.80;2.40;0.00
49343;PMS5003;35210;41.606;-87.602;2023-02-03T06:41:25;1.80;1.00;0.00
49343;PMS5003;35210;41.606;-87.602;2023-02-03T06:43:55;1.00;1.00;0.00
49343;PMS5003;35210;41.606;-87.602;2023-02-03T06:46:23;2.00;0.60;0.00
49343;PMS5003;35210;41.606;-87.602;2023-02-03T06:48:54;1.60;0.60;0.00
49343;PMS5003;35210;41.606;-87.602;2023-02-03T06:51:22;3.20;0.80;0.00
49343;PMS5003;35210;41.606;-87.602;2023-02-03T06:53:52;1.00;1.00;0.00
49343;PMS5003;35210;41.606;-87.602;2023-02-03T06:56:20;1.00;1.00;0.00
49343;PMS5003;35210;41.606;-87.602;2023-02-03T06:58:48;0.00;0.00;0.00
49343;PMS5003;35210;41.606;-87.602;2023-02-03T07:01:16;0.00;0.00;0.00
49343;PMS5003;35210;41.606;-87.602;2023-02-03T07:03:44;1.00;0.00;0.00
49343;PMS5003;35210;41.606;-87.602;2023-02-03T07:06:13;1.00;1.00;0.00
49343;PMS5003;35210;41.606;-87.602;2023-02-03T07:08:41;0.00;0.00;0.00
49343;PMS5003;35210;41.606;-87.602;2023-02-03T07:11:11;0.00;0.00;0.00
49343;PMS5003;35210;41.606;-87.602;2023-02-03T07:13:40;0.60;0.60;0.00
49343;PMS5003;35210;41.606;-87.602;2023-02-03T07:16:08;0.00;0.00;0.00
49343;PMS5003;35210;41.606;-87.602;2023-02-03T07:18:36;3.20;0.20;0.00
49343;PMS5003;35210;41.606;-87.602;2023-02-03T07:21:04;0.40;0.40;0.00
49343;PMS5003;35210;41.606;-87.602;2023-02-03T07:23:33;0.00;0.00;0.00
49343;PMS5003;35210;41.606;-87.602;2023-02-03T07:26:02;0.40;0.00;0.00
49343;PMS5003;35210;41.606;-87.602;2023-02-03T07:28:34;1.40;0.00;0.00
49343;PMS5003;35210;41.606;-87.602;2023-02-03T07:31:02;0.60;0.20;0.00
49343;PMS5003;35210;41.606;-87.602;2023-02-03T07:33:32;0.20;0.20;0.00
49343;PMS5003;35210;41.606;-87.602;2023-02-03T07:36:00;0.00;0.00;0.00
49343;PMS5003;35210;41.606;-87.602;2023-02-03T07:38:29;0.00;0.00;0.00
49343;PMS5003;35210;41.606;-87.602;2023-02-03T07:40:57;0.40;0.40;0.00
49343;PMS5003;35210;41.606;-87.602;2023-02-03T07:43:25;1.00;1.00;0.00
49343;PMS5003;35210;41.606;-87.602;2023-02-03T07:45:55;0.00;0.00;0.00
49343;PMS5003;35210;41.606;-87.602;2023-02-03T07:48:23;5.60;2.20;0.00
49343;PMS5003;35210;41.606;-87.602;2023-02-03T07:50:51;0.00;0.00;0.00
49343;PMS5003;35210;41.606;-87.602;2023-02-03T07:53:20;2.20;0.00;0.00
49343;PMS5003;35210;41.606;-87.602;2023-02-03T07:55:48;3.00;1.00;0.00
49343;PMS5003;35210;41.606;-87.602;2023-02-03T07:58:16;3.60;0.40;0.00
49343;PMS5003;35210;41.606;-87.602;2023-02-03T08:00:44;1.00;1.00;0.00
49343;PMS5003;35210;41.606;-87.602;2023-02-03T08:03:14;1.00;1.00;0.00
49343;PMS5003;35210;41.606;-87.602;2023-02-03T08:05:42;0.40;0.00;0.00
49343;PMS5003;35210;41.606;-87.602;2023-02-03T08:08:11;3.00;0.40;0.00
49343;PMS5003;35210;41.606;-87.602;2023-02-03T08:10:40;1.00;0.00;0.00
49343;PMS5003;35210;41.606;-87.602;2023-02-03T08:13:08;1.80;1.80;0.00
49343;PMS5003;35210;41.606;-87.602;2023-02-03T08:15:37;0.00;0.00;0.00
49343;PMS5003;35210;41.606;-87.602;2023-02-03T08:18:05;0.00;0.00;0.00
49343;PMS5003;35210;41.606;-87.602;2023-02-03T08:20:38;0.00;0.00;0.00
49343;PMS5003;35210;41.606;-87.602;2023-02-03T08:23:07;0.00;0.00;0.00
49343;PMS5003;35210;41.606;-87.602;2023-02-03T08:25:35;1.00;1.00;0.00
49343;PMS5003;35210;41.606;-87.602;2023-02-03T08:28:03;0.00;0.00;0.00
49343;PMS5003;35210;41.606;-87.602;2023-02-03T08:30:32;0.60;0.60;0.00
49343;PMS5003;35210;41.606;-87.602;2023-02-03T08:33:00;3.00;2.20;0.00
49343;PMS5003;35210;41.606;-87.602;2023-02-03T08:35:28;2.60;2.60;0.00
49343;PMS5003;35210;41.606;-87.602;2023-02-03T08:37:59;0.80;0.80;0.00
49343;PMS5003;35210;41.606;-87.602;2023-02-03T08:40:27;0.00;0.00;0.00
49343;PMS5003;35210;41.606;-87.602;2023-02-03T08:42:55;0.20;0.20;0.00
49343;PMS5003;35210;41.606;-87.602;2023-02-03T08:45:23;0.40;0.00;0.00
49343;PMS5003;35210;41.606;-87.602;2023-02-03T08:47:51;0.00;0.00;0.00
49343;PMS5003;35210;41.606;-87.602;2023-02-03T08:50:19;0.20;0.20;0.00
49343;PMS5003;35210;41.606;-87.602;2023-02-03T08:52:48;0.60;0.60;0.00
49343;PMS5003;35210;41.606;-87.602;2023-02-03T08:55:18;1.00;1.00;0.00
49343;PMS5003;35210;41.606;-87.602;2023-02-03T08:57:46;1.00;1.00;0.00
49343;PMS5003;35210;41.606;-87.602;2023-02-03T09:00:15;0.80;0.80;0.00
49343;PMS5003;35210;41.606;-87.602;2023-02-03T09:02:44;3.00;0.00;0.00
49343;PMS5003;35210;41.606;-87.602;2023-02-03T09:05:12;0.00;0.00;0.00
49343;PMS5003;35210;41.606;-87.602;2023-02-03T09:07:42;1.00;1.00;0.00
49343;PMS5003;35210;41.606;-87.602;2023-02-03T09:10:11;3.60;1.00;0.00
49343;PMS5003;35210;41.606;-87.602;2023-02-03T09:12:40;1.80;1.00;0.00
49343;PMS5003;35210;41.606;-87.602;2023-02-03T09:18:41;0.40;0.40;0.00
49343;PMS5003;35210;41.606;-87.602;2023-02-03T09:21:10;0.80;0.80;0.00
49343;PMS5003;35210;41.606;-87.602;2023-02-03T09:23:41;0.80;0.00;0.00
49343;PMS5003;35210;41.606;-87.602;2023-02-03T09:26:10;0.40;0.00;0.00
49343;PMS5003;35210;41.606;-87.602;2023-02-03T09:28:41;3.00;0.00;0.00
49343;PMS5003;35210;41.606;-87.602;2023-02-03T09:31:10;1.00;1.00;0.00
49343;PMS5003;35210;41.606;-87.602;2023-02-03T09:33:42;1.80;0.40;0.00
49343;PMS5003;35210;41.606;-87.602;2023-02-03T09:36:10;1.00;1.00;0.00
49343;PMS5003;35210;41.606;-87.602;2023-02-03T09:38:39;0.00;0.00;0.00
49343;PMS5003;35210;41.606;-87.602;2023-02-03T09:41:11;0.00;0.00;0.00
49343;PMS5003;35210;41.606;-87.602;2023-02-03T09:43:48;2.20;0.00;0.00
49343;PMS5003;35210;41.606;-87.602;2023-02-03T09:46:22;0.00;0.00;0.00
49343;PMS5003;35210;41.606;-87.602;2023-02-03T09:48:54;0.00;0.00;0.00
49343;PMS5003;35210;41.606;-87.602;2023-02-03T09:51:26;0.20;0.20;0.00
49343;PMS5003;35210;41.606;-87.602;2023-02-03T09:54:01;0.00;0.00;0.00
49343;PMS5003;35210;41.606;-87.602;2023-02-03T09:56:37;1.60;0.00;0.00
49343;PMS5003;35210;41.606;-87.602;2023-02-03T09:59:08;1.00;0.60;0.00
49343;PMS5003;35210;41.606;-87.602;2023-02-03T10:01:38;3.00;1.00;0.00
49343;PMS5003;35210;41.606;-87.602;2023-02-03T10:04:16;1.40;0.60;0.00
49343;PMS5003;35210;41.606;-87.602;2023-02-03T10:06:53;1.00;0.60;0.00
49343;PMS5003;35210;41.606;-87.602;2023-02-03T10:09:36;2.20;2.20;0.00
49343;PMS5003;35210;41.606;-87.602;2023-02-03T10:12:22;0.80;0.80;0.00
49343;PMS5003;35210;41.606;-87.602;2023-02-03T10:15:14;2.80;1.00;0.00
49343;PMS5003;35210;41.606;-87.602;2023-02-03T10:17:58;0.00;0.00;0.00
49343;PMS5003;35210;41.606;-87.602;2023-02-03T10:20:33;1.00;1.00;0.00
49343;PMS5003;35210;41.606;-87.602;2023-02-03T10:23:06;0.00;0.00;0.00
49343;PMS5003;35210;41.606;-87.602;2023-02-03T10:25:41;0.00;0.00;0.00
49343;PMS5003;35210;41.606;-87.602;2023-02-03T10:28:16;0.00;0.00;0.00
49343;PMS5003;35210;41.606;-87.602;2023-02-03T10:30:47;1.00;0.00;0.00
49343;PMS5003;35210;41.606;-87.602;2023-02-03T10:33:23;3.00;1.00;0.00
49343;PMS5003;35210;41.606;-87.602;2023-02-03T10:35:52;0.00;0.00;0.00
49343;PMS5003;35210;41.606;-87.602;2023-02-03T10:38:26;0.00;0.00;0.00
49343;PMS5003;35210;41.606;-87.602;2023-02-03T10:41:05;0.60;0.60;0.00
49343;PMS5003;35210;41.606;-87.602;2023-02-03T10:43:34;0.00;0.00;0.00
49343;PMS5003;35210;41.606;-87.602;2023-02-03T10:46:18;1.00;1.00;0.00
49343;PMS5003;35210;41.606;-87.602;2023-02-03T10:48:47;0.20;0.20;0.00
49343;PMS5003;35210;41.606;-87.602;2023-02-03T10:51:19;0.00;0.00;0.00
49343;PMS5003;35210;41.606;-87.602;2023-02-03T10:53:51;0.00;0.00;0.00
49343;PMS5003;35210;41.606;-87.602;2023-02-03T10:56:20;1.00;1.00;0.00
49343;PMS5003;35210;41.606;-87.602;2023-02-03T10:58:52;0.00;0.00;0.00
49343;PMS5003;35210;41.606;-87.602;2023-02-03T11:01:23;0.80;0.00;0.00
49343;PMS5003;35210;41.606;-87.602;2023-02-03T11:03:56;4.00;0.60;0.00
49343;PMS5003;35210;41.606;-87.602;2023-02-03T11:06:26;1.40;0.20;0.00
49343;PMS5003;35210;41.606;-87.602;2023-02-03T11:08:54;0.00;0.00;0.00
49343;PMS5003;35210;41.606;-87.602;2023-02-03T11:11:24;0.00;0.00;0.00
49343;PMS5003;35210;41.606;-87.602;2023-02-03T11:14:09;1.00;1.00;0.00
49343;PMS5003;35210;41.606;-87.602;2023-02-03T11:16:40;0.40;0.20;0.00
49343;PMS5003;35210;41.606;-87.602;2023-02-03T11:19:13;0.00;0.00;0.00
49343;PMS5003;35210;41.606;-87.602;2023-02-03T11:21:45;0.80;0.00;0.00
49343;PMS5003;35210;41.606;-87.602;2023-02-03T11:24:17;1.00;0.00;0.00
49343;PMS5003;35210;41.606;-87.602;2023-02-03T11:26:48;1.00;1.00;0.00
49343;PMS5003;35210;41.606;-87.602;2023-02-03T11:29:21;0.80;0.80;0.00
49343;PMS5003;35210;41.606;-87.602;2023-02-03T11:31:55;0.00;0.00;0.00
49343;PMS5003;35210;41.606;-87.602;2023-02-03T11:34:26;2.20;0.20;0.00
49343;PMS5003;35210;41.606;-87.602;2023-02-03T11:37:03;0.00;0.00;0.00
49343;PMS5003;35210;41.606;-87.602;2023-02-03T11:39:52;0.00;0.00;0.00
49343;PMS5003;35210;41.606;-87.602;2023-02-03T11:42:23;0.00;0.00;0.00
49343;PMS5003;35210;41.606;-87.602;2023-02-03T11:44:52;3.60;1.00;0.00
49343;PMS5003;35210;41.606;-87.602;2023-02-03T11:47:44;1.00;0.40;0.00
49343;PMS5003;35210;41.606;-87.602;2023-02-03T11:50:22;1.20;0.00;0.00
49343;PMS5003;35210;41.606;-87.602;2023-02-03T11:56:01;0.00;0.00;0.00
49343;PMS5003;35210;41.606;-87.602;2023-02-03T11:58:43;0.50;0.00;0.00
49343;PMS5003;35210;41.606;-87.602;2023-02-03T12:01:44;0.00;0.00;0.00
49343;PMS5003;35210;41.606;-87.602;2023-02-03T12:10:27;0.80;0.80;0.00
49343;PMS5003;35210;41.606;-87.602;2023-02-03T12:13:09;0.75;0.75;0.00
49343;PMS5003;35210;41.606;-87.602;2023-02-03T12:15:55;0.00;0.00;0.00
49343;PMS5003;35210;41.606;-87.602;2023-02-03T12:18:40;1.00;0.00;0.00
49343;PMS5003;35210;41.606;-87.602;2023-02-03T12:21:29;3.00;0.40;0.00
49343;PMS5003;35210;41.606;-87.602;2023-02-03T12:24:08;1.00;1.00;0.00
49343;PMS5003;35210;41.606;-87.602;2023-02-03T12:26:53;1.60;0.20;0.00
49343;PMS5003;35210;41.606;-87.602;2023-02-03T12:29:32;0.00;0.00;0.00
49343;PMS5003;35210;41.606;-87.602;2023-02-03T12:32:10;0.00;0.00;0.00
49343;PMS5003;35210;41.606;-87.602;2023-02-03T12:34:45;1.00;1.00;0.00
49343;PMS5003;35210;41.606;-87.602;2023-02-03T12:37:21;5.60;1.00;0.00
49343;PMS5003;35210;41.606;-87.602;2023-02-03T12:39:56;0.20;0.20;0.00
49343;PMS5003;35210;41.606;-87.602;2023-02-03T12:42:27;2.20;0.00;0.00
49343;PMS5003;35210;41.606;-87.602;2023-02-03T12:45:02;0.60;0.60;0.00
49343;PMS5003;35210;41.606;-87.602;2023-02-03T12:47:37;0.20;0.20;0.00
49343;PMS5003;35210;41.606;-87.602;2023-02-03T12:50:13;0.00;0.00;0.00
49343;PMS5003;35210;41.606;-87.602;2023-02-03T12:52:46;0.00;0.00;0.00
49343;PMS5003;35210;41.606;-87.602;2023-02-03T12:55:35;2.60;0.60;0.00
49343;PMS5003;35210;41.606;-87.602;2023-02-03T12:58:09;0.00;0.00;0.00
49343;PMS5003;35210;41.606;-87.602;2023-02-03T13:00:43;2.60;0.00;0.00
49343;PMS5003;35210;41.606;-87.602;2023-02-03T13:03:17;4.00;3.20;0.00
49343;PMS5003;35210;41.606;-87.602;2023-02-03T13:05:53;0.60;0.40;0.00
49343;PMS5003;35210;41.606;-87.602;2023-02-03T13:08:31;1.00;1.00;0.00
49343;PMS5003;35210;41.606;-87.602;2023-02-03T13:11:08;0.00;0.00;0.00
49343;PMS5003;35210;41.606;-87.602;2023-02-03T13:13:44;4.40;1.40;0.00
49343;PMS5003;35210;41.606;-87.602;2023-02-03T13:16:20;3.00;2.20;0.00
49343;PMS5003;35210;41.606;-87.602;2023-02-03T13:18:54;1.00;1.00;0.00
49343;PMS5003;35210;41.606;-87.602;2023-02-03T13:21:28;0.00;0.00;0.00
49343;PMS5003;35210;41.606;-87.602;2023-02-03T13:23:58;1.00;0.20;0.00
49343;PMS5003;35210;41.606;-87.602;2023-02-03T13:29:44;0.00;0.00;0.00
49343;PMS5003;35210;41.606;-87.602;2023-02-03T13:32:35;1.40;0.00;0.00
49343;PMS5003;35210;41.606;-87.602;2023-02-03T13:35:26;2.80;1.00;0.40
49343;PMS5003;35210;41.606;-87.602;2023-02-03T13:38:13;3.60;2.60;0.00
49343;PMS5003;35210;41.606;-87.602;2023-02-03T13:41:15;0.00;0.00;0.00
49343;PMS5003;35210;41.606;-87.602;2023-02-03T13:43:50;4.00;2.00;0.00
49343;PMS5003;35210;41.606;-87.602;2023-02-03T13:46:22;4.00;0.00;0.00
49343;PMS5003;35210;41.606;-87.602;2023-02-03T13:48:53;0.00;0.00;0.00
49343;PMS5003;35210;41.606;-87.602;2023-02-03T13:51:25;0.60;0.20;0.00
49343;PMS5003;35210;41.606;-87.602;2023-02-03T13:54:00;0.00;0.00;0.00
49343;PMS5003;35210;41.606;-87.602;2023-02-03T13:56:30;1.00;0.40;0.00
49343;PMS5003;35210;41.606;-87.602;2023-02-03T13:59:02;1.00;1.00;0.00
49343;PMS5003;35210;41.606;-87.602;2023-02-03T14:01:33;1.40;1.40;0.00
49343;PMS5003;35210;41.606;-87.602;2023-02-03T14:04:05;1.20;0.00;0.00
49343;PMS5003;35210;41.606;-87.602;2023-02-03T14:09:25;0.20;0.20;0.00
49343;PMS5003;35210;41.606;-87.602;2023-02-03T14:12:18;4.00;0.80;0.00
49343;PMS5003;35210;41.606;-87.602;2023-02-03T14:15:00;0.20;0.20;0.00
49343;PMS5003;35210;41.606;-87.602;2023-02-03T14:26:38;1.40;0.20;0.00
49343;PMS5003;35210;41.606;-87.602;2023-02-03T14:29:10;0.60;0.60;0.00
49343;PMS5003;35210;41.606;-87.602;2023-02-03T14:31:56;0.00;0.00;0.00
49343;PMS5003;35210;41.606;-87.602;2023-02-03T14:34:30;0.00;0.00;0.00
49343;PMS5003;35210;41.606;-87.602;2023-02-03T14:37:11;0.20;0.00;0.00
49343;PMS5003;35210;41.606;-87.602;2023-02-03T14:42:59;0.80;0.80;0.00
49343;PMS5003;35210;41.606;-87.602;2023-02-03T14:48:54;0.00;0.00;0.00
49343;PMS5003;35210;41.606;-87.602;2023-02-03T14:51:41;2.40;0.60;0.00
49343;PMS5003;35210;41.606;-87.602;2023-02-03T14:54:30;2.60;0.40;0.00
49343;PMS5003;35210;41.606;-87.602;2023-02-03T14:57:17;0.00;0.00;0.00
49343;PMS5003;35210;41.606;-87.602;2023-02-03T14:59:58;4.00;1.40;0.40
49343;PMS5003;35210;41.606;-87.602;2023-02-03T15:02:30;2.00;2.00;0.00